Titusville, New Jersey
Current Conditions -  °F | °C
As of 7:53 PM on Tuesday 25 Nov 2014 (Local Time) from KTTN Reporting Station
Clear Clear  
Wind Chill: 47°   Ceiling: Unl
Heat Index: 47°   Visibility: 10mi
Dew Point: 29°   Wind: 0mph
Humidity: 50%   Direction: NA
Pressure: 30.1"   Gusts: NA
Location:  40.31°N, 74.88°W
Report Text: KTTN 260053Z 00000KT 10SM CLR 08/M02 A3010 RMK AO2 SLP188 T00831017
Loading
Personal Weather Stations






























Interactive Weather Map New forecast layout! Learn more

10-Day Weather Forecast

Advertisements
Track Severe Weather on mobile